createdAt,value
2018-07-07T00:00:40.641Z,0.00
2018-07-07T00:01:40.637Z,0.00
2018-07-07T00:02:40.632Z,0.00
2018-07-07T00:03:40.633Z,0.00
2018-07-07T00:04:40.631Z,0.00
2018-07-07T00:05:40.625Z,0.00
2018-07-07T00:06:40.622Z,0.00
2018-07-07T00:07:40.618Z,0.00
2018-07-07T00:08:40.621Z,0.00
2018-07-07T00:09:40.617Z,0.00
2018-07-07T00:10:40.616Z,0.00
2018-07-07T00:11:40.617Z,0.00
2018-07-07T00:12:40.607Z,0.00
2018-07-07T00:13:40.605Z,0.00
2018-07-07T00:14:40.600Z,0.00
2018-07-07T00:15:40.598Z,0.00
2018-07-07T00:16:40.600Z,0.00
2018-07-07T00:17:40.597Z,0.00
2018-07-07T00:18:40.593Z,0.00
2018-07-07T00:19:40.589Z,0.00
2018-07-07T00:20:40.589Z,0.00
2018-07-07T00:21:40.581Z,0.00
2018-07-07T00:22:40.578Z,0.00
2018-07-07T00:23:40.577Z,0.00
2018-07-07T00:24:40.578Z,0.00
2018-07-07T00:25:40.577Z,0.00
2018-07-07T00:26:40.575Z,0.00
2018-07-07T00:27:40.570Z,0.00
2018-07-07T00:28:40.564Z,0.00
2018-07-07T00:29:40.560Z,0.00
2018-07-07T00:30:40.557Z,0.00
2018-07-07T00:31:40.559Z,0.00
2018-07-07T00:32:40.557Z,0.00
2018-07-07T00:33:40.554Z,0.00
2018-07-07T00:34:40.546Z,0.00
2018-07-07T00:35:40.545Z,0.00
2018-07-07T00:36:40.553Z,0.00
2018-07-07T00:37:40.543Z,0.00
2018-07-07T00:38:40.541Z,0.00
2018-07-07T00:39:40.538Z,0.00
2018-07-07T00:40:40.534Z,0.00
2018-07-07T00:41:40.533Z,0.00
2018-07-07T00:42:40.529Z,0.00
2018-07-07T00:43:40.525Z,0.00
2018-07-07T00:44:40.522Z,0.00
2018-07-07T00:45:40.522Z,0.00
2018-07-07T00:46:40.517Z,0.00
2018-07-07T00:47:40.517Z,0.00
2018-07-07T00:48:40.514Z,0.00
2018-07-07T00:49:40.507Z,0.00
2018-07-07T00:50:40.504Z,0.00
2018-07-07T00:51:40.503Z,0.00
2018-07-07T00:52:40.503Z,0.00
2018-07-07T00:53:40.492Z,0.00
2018-07-07T00:54:40.496Z,0.00
2018-07-07T00:55:40.493Z,0.00
2018-07-07T00:56:40.492Z,0.00
2018-07-07T00:57:40.483Z,0.00
2018-07-07T00:58:40.481Z,0.00
2018-07-07T00:59:40.482Z,0.00
2018-07-07T01:00:40.478Z,0.00
2018-07-07T01:01:40.477Z,0.00
2018-07-07T01:02:40.480Z,0.00
2018-07-07T01:03:40.471Z,0.00
2018-07-07T01:04:40.463Z,0.00
2018-07-07T01:05:40.463Z,0.00
2018-07-07T01:06:40.459Z,0.00
2018-07-07T01:07:40.461Z,0.00
2018-07-07T01:08:40.457Z,0.00
2018-07-07T01:09:40.452Z,0.00
2018-07-07T01:10:40.451Z,0.00
2018-07-07T01:11:40.448Z,0.00
2018-07-07T01:12:40.441Z,0.00
2018-07-07T01:13:40.443Z,0.00
2018-07-07T01:14:40.446Z,0.00
2018-07-07T01:15:40.438Z,0.00
2018-07-07T01:16:40.434Z,0.00
2018-07-07T01:17:40.438Z,0.00
2018-07-07T01:18:40.429Z,0.00
2018-07-07T01:19:40.432Z,0.00
2018-07-07T01:20:40.419Z,0.00
2018-07-07T01:21:40.414Z,0.00
2018-07-07T01:22:40.418Z,0.00
2018-07-07T01:23:40.414Z,0.00
2018-07-07T01:24:40.410Z,0.00
2018-07-07T01:25:40.412Z,0.00
2018-07-07T01:26:40.400Z,0.00
2018-07-07T01:27:40.422Z,0.00
2018-07-07T01:28:40.401Z,0.00
2018-07-07T01:29:40.395Z,0.00
2018-07-07T01:30:40.403Z,0.00
2018-07-07T01:31:40.390Z,0.00
2018-07-07T01:32:40.384Z,0.00
2018-07-07T01:33:40.382Z,0.00
2018-07-07T01:34:40.377Z,0.00
2018-07-07T01:35:40.380Z,0.00
2018-07-07T01:36:40.377Z,0.00
2018-07-07T01:37:40.377Z,0.00
2018-07-07T01:38:40.368Z,0.00
2018-07-07T01:39:40.363Z,0.00
2018-07-07T01:40:40.360Z,0.00
2018-07-07T01:41:40.357Z,0.00
2018-07-07T01:42:40.354Z,0.00
2018-07-07T01:43:40.359Z,0.00
2018-07-07T01:44:40.352Z,0.00
2018-07-07T01:45:40.348Z,0.00
2018-07-07T01:46:40.342Z,0.00
2018-07-07T01:47:40.340Z,0.00
2018-07-07T01:48:40.355Z,0.00
2018-07-07T01:49:40.332Z,0.00
2018-07-07T01:50:40.333Z,0.00
2018-07-07T01:51:40.325Z,0.00
2018-07-07T01:52:40.326Z,0.00
2018-07-07T01:53:40.324Z,0.00
2018-07-07T01:54:40.318Z,0.00
2018-07-07T01:55:40.321Z,0.00
2018-07-07T01:56:40.351Z,0.00
2018-07-07T01:57:40.311Z,0.00
2018-07-07T01:58:40.307Z,0.00
2018-07-07T01:59:40.305Z,0.00
2018-07-07T02:00:40.311Z,0.00
2018-07-07T02:01:40.296Z,0.00
2018-07-07T02:02:40.295Z,0.00
2018-07-07T02:03:40.291Z,0.00
2018-07-07T02:04:40.301Z,0.00
2018-07-07T02:05:40.286Z,0.00
2018-07-07T02:06:40.286Z,0.00
2018-07-07T02:07:40.281Z,0.00
2018-07-07T02:08:40.277Z,0.00
2018-07-07T02:09:40.271Z,0.00
2018-07-07T02:10:40.269Z,0.00
2018-07-07T02:11:40.282Z,0.00
2018-07-07T02:12:40.269Z,0.00
2018-07-07T02:13:40.263Z,0.00
2018-07-07T02:14:40.262Z,0.00
2018-07-07T02:15:40.255Z,0.00
2018-07-07T02:16:40.253Z,0.00
2018-07-07T02:17:40.259Z,0.00
2018-07-07T02:18:40.300Z,0.00
2018-07-07T02:19:40.248Z,0.00
2018-07-07T02:20:40.243Z,0.00
2018-07-07T02:21:40.240Z,0.00
2018-07-07T02:22:40.234Z,0.00
2018-07-07T02:23:40.229Z,0.00
2018-07-07T02:24:40.229Z,0.00
2018-07-07T02:25:40.228Z,0.00
2018-07-07T02:26:40.226Z,0.00
2018-07-07T02:27:40.222Z,0.00
2018-07-07T02:28:40.220Z,0.00
2018-07-07T02:29:40.210Z,0.00
2018-07-07T02:30:41.934Z,0.00
2018-07-07T02:31:40.208Z,0.00
2018-07-07T02:32:40.203Z,0.00
2018-07-07T02:33:40.203Z,0.00
2018-07-07T02:34:40.200Z,0.00
2018-07-07T02:35:40.196Z,0.00
2018-07-07T02:36:40.195Z,0.00
2018-07-07T02:37:40.187Z,4.00
2018-07-07T02:38:40.185Z,4.00
2018-07-07T02:39:40.186Z,4.00
2018-07-07T02:40:40.185Z,4.00
2018-07-07T02:41:48.158Z,0.00
2018-07-07T02:43:33.798Z,4.00
2018-07-07T02:44:33.760Z,4.00
2018-07-07T02:46:27.588Z,4.00
2018-07-07T02:47:35.296Z,4.00
2018-07-07T02:49:28.843Z,8.00
2018-07-07T02:50:20.974Z,8.00
2018-07-07T02:51:20.969Z,8.00
2018-07-07T02:52:20.967Z,12.00
2018-07-07T02:53:20.964Z,12.00
2018-07-07T02:54:20.963Z,16.00
2018-07-07T02:55:20.965Z,16.00
2018-07-07T02:56:20.959Z,20.00
2018-07-07T02:57:20.956Z,24.00
2018-07-07T02:58:28.784Z,20.00
2018-07-07T03:00:22.666Z,28.00
2018-07-07T03:01:22.801Z,32.00
2018-07-07T03:03:08.358Z,40.00
2018-07-07T03:04:16.284Z,44.00
2018-07-07T03:06:09.752Z,56.00
2018-07-07T03:07:09.820Z,64.00
2018-07-07T03:09:03.590Z,76.00
2018-07-07T03:10:03.506Z,80.00
2018-07-07T03:11:49.098Z,92.00
2018-07-07T03:12:57.120Z,104.00
2018-07-07T03:14:42.642Z,120.00
2018-07-07T03:15:50.451Z,128.00
2018-07-07T03:17:36.127Z,148.00
2018-07-07T03:18:44.031Z,160.00
2018-07-07T03:20:31.080Z,184.00
2018-07-07T03:21:30.870Z,200.00
2018-07-07T03:23:24.550Z,228.00
2018-07-07T03:24:24.519Z,240.00
2018-07-07T03:26:18.109Z,268.00
2018-07-07T03:27:18.074Z,280.00
2018-07-07T03:29:11.742Z,304.00
2018-07-07T03:30:11.712Z,324.00
2018-07-07T03:31:11.711Z,340.00
2018-07-07T03:32:11.709Z,356.00
2018-07-07T03:33:11.704Z,372.00
2018-07-07T03:34:11.697Z,384.00
2018-07-07T03:35:11.696Z,404.00
2018-07-07T03:36:11.692Z,416.00
2018-07-07T03:37:11.689Z,436.00
2018-07-07T03:38:11.688Z,452.00
2018-07-07T03:39:11.681Z,476.00
2018-07-07T03:40:11.677Z,496.00
2018-07-07T03:41:11.680Z,512.00
2018-07-07T03:42:11.715Z,528.00
2018-07-07T03:43:11.668Z,540.00
2018-07-07T03:44:11.669Z,564.00
2018-07-07T03:45:11.663Z,580.00
2018-07-07T03:46:11.675Z,596.00
2018-07-07T03:47:11.651Z,620.00
2018-07-07T03:48:11.648Z,640.00
2018-07-07T03:49:11.691Z,660.00
2018-07-07T03:50:11.642Z,684.00
2018-07-07T03:51:11.652Z,708.00
2018-07-07T03:52:11.651Z,732.00
2018-07-07T03:53:11.633Z,748.00
2018-07-07T03:54:11.627Z,764.00
2018-07-07T03:55:11.629Z,792.00
2018-07-07T03:56:11.626Z,828.00
2018-07-07T03:57:11.622Z,880.00
2018-07-07T03:58:11.621Z,944.00
2018-07-07T03:59:11.615Z,1004.00
2018-07-07T04:00:11.605Z,1048.00
2018-07-07T04:01:11.605Z,1088.00
2018-07-07T04:02:11.624Z,1128.00
2018-07-07T04:03:11.598Z,1156.00
2018-07-07T04:04:11.598Z,1184.00
2018-07-07T04:05:11.597Z,1212.00
2018-07-07T04:06:11.592Z,1248.00
2018-07-07T04:07:11.606Z,1280.00
2018-07-07T04:08:11.580Z,1312.00
2018-07-07T04:09:11.582Z,1336.00
2018-07-07T04:10:11.579Z,1360.00
2018-07-07T04:11:11.581Z,1384.00
2018-07-07T04:12:11.572Z,1412.00
2018-07-07T04:13:11.567Z,1448.00
2018-07-07T04:14:11.567Z,1484.00
2018-07-07T04:15:11.563Z,1520.00
2018-07-07T04:16:11.556Z,1552.00
2018-07-07T04:17:11.552Z,1584.00
2018-07-07T04:18:11.550Z,1612.00
2018-07-07T04:19:11.547Z,1632.00
2018-07-07T04:20:11.591Z,1656.00
2018-07-07T04:21:11.546Z,1668.00
2018-07-07T04:22:11.532Z,1692.00
2018-07-07T04:23:11.530Z,1724.00
2018-07-07T04:24:11.528Z,1764.00
2018-07-07T04:25:11.527Z,1800.00
2018-07-07T04:26:11.524Z,1828.00
2018-07-07T04:27:11.521Z,1868.00
2018-07-07T04:28:11.517Z,1908.00
2018-07-07T04:29:11.514Z,1952.00
2018-07-07T04:30:11.509Z,1988.00
2018-07-07T04:31:11.505Z,2020.00
2018-07-07T04:32:11.505Z,2044.00
2018-07-07T04:33:11.502Z,2064.00
2018-07-07T04:34:11.500Z,2084.00
2018-07-07T04:35:11.492Z,2116.00
2018-07-07T04:36:11.485Z,2156.00
2018-07-07T04:37:11.483Z,2196.00
2018-07-07T04:38:11.493Z,2232.00
2018-07-07T04:39:11.481Z,2264.00
2018-07-07T04:40:11.472Z,2300.00
2018-07-07T04:41:11.472Z,2336.00
2018-07-07T04:42:11.477Z,2372.00
2018-07-07T04:43:11.463Z,2412.00
2018-07-07T04:44:11.462Z,2456.00
2018-07-07T04:45:11.460Z,2496.00
2018-07-07T04:46:11.465Z,2536.00
2018-07-07T04:47:11.454Z,2580.00
2018-07-07T04:48:11.452Z,2612.00
2018-07-07T04:49:11.449Z,2652.00
2018-07-07T04:50:11.441Z,2684.00
2018-07-07T04:51:11.436Z,2700.00
2018-07-07T04:52:11.434Z,2716.00
2018-07-07T04:53:11.433Z,2740.00
2018-07-07T04:54:11.432Z,2764.00
2018-07-07T04:55:11.431Z,2800.00
2018-07-07T04:56:11.422Z,2828.00
2018-07-07T04:57:11.425Z,2860.00
2018-07-07T04:58:11.414Z,2896.00
2018-07-07T04:59:11.413Z,2932.00
2018-07-07T05:00:11.410Z,2964.00
2018-07-07T05:01:11.413Z,3004.00
2018-07-07T05:02:11.409Z,3036.00
2018-07-07T05:03:11.403Z,3072.00
2018-07-07T05:04:11.396Z,3100.00
2018-07-07T05:05:11.397Z,3128.00
2018-07-07T05:06:11.392Z,3156.00
2018-07-07T05:07:11.390Z,3180.00
2018-07-07T05:08:11.387Z,3236.00
2018-07-07T05:09:11.386Z,3296.00
2018-07-07T05:10:11.384Z,3300.00
2018-07-07T05:11:11.378Z,3284.00
2018-07-07T05:12:11.373Z,3304.00
2018-07-07T05:13:11.370Z,3332.00
2018-07-07T05:14:11.370Z,3364.00
2018-07-07T05:15:11.373Z,3396.00
2018-07-07T05:16:11.365Z,3428.00
2018-07-07T05:17:11.428Z,3468.00
2018-07-07T05:18:11.362Z,3516.00
2018-07-07T05:19:11.353Z,3564.00
2018-07-07T05:20:11.353Z,3624.00
2018-07-07T05:21:11.348Z,3696.00
2018-07-07T05:22:11.350Z,3792.00
2018-07-07T05:23:11.349Z,3912.00
2018-07-07T05:24:11.345Z,4056.00
2018-07-07T05:25:11.343Z,4256.00
2018-07-07T05:26:11.339Z,4508.00
2018-07-07T05:27:11.333Z,4812.00
2018-07-07T05:28:11.334Z,5188.00
2018-07-07T05:29:11.335Z,5856.00
2018-07-07T05:30:11.335Z,6980.00
2018-07-07T05:31:11.327Z,8076.00
2018-07-07T05:32:11.336Z,8500.00
2018-07-07T05:33:11.321Z,8832.00
2018-07-07T05:34:11.317Z,9020.00
2018-07-07T05:35:11.315Z,9380.00
2018-07-07T05:36:11.317Z,9888.00
2018-07-07T05:37:11.362Z,10436.00
2018-07-07T05:38:11.312Z,10720.00
2018-07-07T05:39:11.313Z,10940.00
2018-07-07T05:40:11.305Z,11196.00
2018-07-07T05:41:11.304Z,11504.00
2018-07-07T05:42:11.302Z,11892.00
2018-07-07T05:43:11.301Z,12024.00
2018-07-07T05:44:11.305Z,12424.00
2018-07-07T05:45:11.296Z,12752.00
2018-07-07T05:46:11.300Z,13160.00
2018-07-07T05:47:11.295Z,13320.00
2018-07-07T05:48:11.294Z,13524.00
2018-07-07T05:49:11.294Z,13572.00
2018-07-07T05:50:11.295Z,13948.00
2018-07-07T05:51:11.294Z,14476.00
2018-07-07T05:52:11.291Z,14812.00
2018-07-07T05:53:11.293Z,15200.00
2018-07-07T05:54:11.287Z,15008.00
2018-07-07T05:55:11.287Z,15584.00
2018-07-07T05:56:11.287Z,15648.00
2018-07-07T05:57:11.291Z,15872.00
2018-07-07T05:58:11.290Z,16128.00
2018-07-07T05:59:11.292Z,15904.00
2018-07-07T06:00:12.090Z,16384.00
2018-07-07T06:01:11.289Z,16416.00
2018-07-07T06:02:11.288Z,16608.00
2018-07-07T06:03:11.292Z,16960.00
2018-07-07T06:04:11.298Z,17152.00
2018-07-07T06:05:11.293Z,16960.00
2018-07-07T06:06:11.291Z,17024.00
2018-07-07T06:07:11.295Z,17952.00
2018-07-07T06:08:11.292Z,18016.00
2018-07-07T06:09:11.291Z,17856.00
2018-07-07T06:10:11.292Z,18496.00
2018-07-07T06:11:11.297Z,19168.00
2018-07-07T06:12:11.299Z,19168.00
2018-07-07T06:13:11.300Z,19136.00
2018-07-07T06:14:11.302Z,19232.00
2018-07-07T06:15:11.307Z,19776.00
2018-07-07T06:16:11.301Z,20320.00
2018-07-07T06:17:11.302Z,20864.00
2018-07-07T06:18:11.317Z,20992.00
2018-07-07T06:19:11.311Z,21792.00
2018-07-07T06:20:11.313Z,23008.00
2018-07-07T06:21:11.314Z,22720.00
2018-07-07T06:22:11.314Z,22752.00
2018-07-07T06:23:11.318Z,23136.00
2018-07-07T06:24:11.320Z,23744.00
2018-07-07T06:25:11.327Z,24096.00
2018-07-07T06:26:11.333Z,23488.00
2018-07-07T06:27:11.328Z,24000.00
2018-07-07T06:28:11.323Z,24160.00
2018-07-07T06:29:11.332Z,24320.00
2018-07-07T06:30:11.333Z,24768.00
2018-07-07T06:31:11.339Z,24096.00
2018-07-07T06:32:11.337Z,24672.00
2018-07-07T06:33:11.341Z,24256.00
2018-07-07T06:34:11.353Z,24576.00
2018-07-07T06:35:11.348Z,25184.00
2018-07-07T06:36:11.351Z,25696.00
2018-07-07T06:37:11.358Z,25696.00
2018-07-07T06:38:11.381Z,24896.00
2018-07-07T06:39:11.363Z,25920.00
2018-07-07T06:40:11.367Z,26272.00
2018-07-07T06:41:11.367Z,26496.00
2018-07-07T06:42:11.370Z,26208.00
2018-07-07T06:43:11.381Z,26304.00
2018-07-07T06:44:11.376Z,27456.00
2018-07-07T06:45:11.379Z,27584.00
2018-07-07T06:46:11.383Z,27456.00
2018-07-07T06:47:11.390Z,27488.00
2018-07-07T06:48:11.394Z,27072.00
2018-07-07T06:49:11.398Z,26624.00
2018-07-07T06:50:11.403Z,26848.00
2018-07-07T06:51:11.405Z,27744.00
2018-07-07T06:52:11.407Z,27968.00
2018-07-07T06:53:11.414Z,27360.00
2018-07-07T06:54:11.420Z,26176.00
2018-07-07T06:55:11.425Z,27808.00
2018-07-07T06:56:11.427Z,30336.00
2018-07-07T06:57:11.435Z,30912.00
2018-07-07T06:58:11.441Z,30112.00
2018-07-07T06:59:11.441Z,29056.00
2018-07-07T07:00:11.447Z,31008.00
2018-07-07T07:01:11.493Z,30688.00
2018-07-07T07:02:11.458Z,30208.00
2018-07-07T07:03:11.464Z,26752.00
2018-07-07T07:04:11.466Z,24704.00
2018-07-07T07:05:11.468Z,25696.00
2018-07-07T07:06:11.476Z,31264.00
2018-07-07T07:07:11.486Z,31232.00
2018-07-07T07:08:11.489Z,32544.00
2018-07-07T07:09:11.492Z,32288.00
2018-07-07T07:10:11.497Z,31648.00
2018-07-07T07:11:11.501Z,33664.00
2018-07-07T07:12:11.508Z,34784.00
2018-07-07T07:13:11.508Z,32640.00
2018-07-07T07:14:11.515Z,34272.00
2018-07-07T07:15:11.520Z,35616.00
2018-07-07T07:16:11.529Z,35072.00
2018-07-07T07:17:11.529Z,35520.00
2018-07-07T07:18:11.537Z,34464.00
2018-07-07T07:19:11.543Z,32256.00
2018-07-07T07:20:11.562Z,35072.00
2018-07-07T07:21:11.557Z,34240.00
2018-07-07T07:22:11.558Z,35840.00
2018-07-07T07:23:11.569Z,35968.00
2018-07-07T07:24:11.573Z,36352.00
2018-07-07T07:25:11.578Z,37600.00
2018-07-07T07:26:11.744Z,37856.00
2018-07-07T07:27:11.593Z,32064.00
2018-07-07T07:28:11.597Z,18912.00
2018-07-07T07:29:11.597Z,31584.00
2018-07-07T07:30:11.608Z,41952.00
2018-07-07T07:31:12.153Z,42752.00
2018-07-07T07:32:11.620Z,21248.00
2018-07-07T07:33:11.626Z,37664.00
2018-07-07T07:34:11.627Z,42176.00
2018-07-07T07:35:11.641Z,42848.00
2018-07-07T07:36:11.639Z,28672.00
2018-07-07T07:37:11.650Z,31264.00
2018-07-07T07:38:11.661Z,38304.00
2018-07-07T07:39:11.666Z,36032.00
2018-07-07T07:40:11.671Z,37696.00
2018-07-07T07:41:11.670Z,35392.00
2018-07-07T07:42:11.678Z,36032.00
2018-07-07T07:43:11.687Z,36352.00
2018-07-07T07:44:11.700Z,40864.00
2018-07-07T07:45:11.702Z,44736.00
2018-07-07T07:46:11.709Z,8412.00
2018-07-07T07:47:11.715Z,8776.00
2018-07-07T07:48:11.717Z,8736.00
2018-07-07T07:49:11.723Z,8240.00
2018-07-07T07:50:11.753Z,8792.00
2018-07-07T07:51:11.740Z,9160.00
2018-07-07T07:52:11.745Z,9212.00
2018-07-07T07:53:11.753Z,9260.00
2018-07-07T07:54:11.757Z,9368.00
2018-07-07T07:55:11.765Z,9712.00
2018-07-07T07:56:11.766Z,10420.00
2018-07-07T07:57:11.774Z,11556.00
2018-07-07T07:58:11.781Z,11656.00
2018-07-07T07:59:11.789Z,12348.00
2018-07-07T08:00:11.792Z,11256.00
2018-07-07T08:01:11.801Z,11928.00
2018-07-07T08:02:11.806Z,11332.00
2018-07-07T08:03:11.830Z,33632.00
2018-07-07T08:04:11.833Z,33440.00
2018-07-07T08:05:11.825Z,100032.00
2018-07-07T08:06:11.829Z,55072.00
2018-07-07T08:07:11.834Z,11664.00
2018-07-07T08:08:11.838Z,48672.00
2018-07-07T08:09:11.842Z,50368.00
2018-07-07T08:10:11.850Z,54688.00
2018-07-07T08:11:11.857Z,56064.00
2018-07-07T08:12:11.863Z,56288.00
2018-07-07T08:13:11.869Z,58112.00
2018-07-07T08:14:11.910Z,58688.00
2018-07-07T08:15:11.882Z,58528.00
2018-07-07T08:16:11.885Z,58592.00
2018-07-07T08:17:11.892Z,60480.00
2018-07-07T08:18:11.899Z,61632.00
2018-07-07T08:19:11.977Z,62784.00
2018-07-07T08:20:11.910Z,63168.00
2018-07-07T08:21:11.919Z,60768.00
2018-07-07T08:22:11.929Z,60128.00
2018-07-07T08:23:11.937Z,59744.00
2018-07-07T08:24:11.947Z,58464.00
2018-07-07T08:25:11.947Z,56544.00
2018-07-07T08:26:11.953Z,56672.00
2018-07-07T08:27:11.962Z,59296.00
2018-07-07T08:28:11.970Z,60000.00
2018-07-07T08:29:11.976Z,63808.00
2018-07-07T08:30:11.979Z,65376.00
2018-07-07T08:31:11.988Z,62848.00
2018-07-07T08:32:11.997Z,60576.00
2018-07-07T08:33:12.006Z,60256.00
2018-07-07T08:34:12.015Z,60512.00
2018-07-07T08:35:12.021Z,59136.00
2018-07-07T08:36:12.034Z,59808.00
2018-07-07T08:37:12.039Z,60160.00
2018-07-07T08:38:12.047Z,60576.00
2018-07-07T08:39:12.056Z,63328.00
2018-07-07T08:40:12.069Z,63392.00
2018-07-07T08:41:12.075Z,66016.00
2018-07-07T08:42:12.150Z,67840.00
2018-07-07T08:43:12.100Z,63136.00
2018-07-07T08:44:12.099Z,58720.00
2018-07-07T08:45:12.109Z,57056.00
2018-07-07T08:46:12.125Z,55584.00
2018-07-07T08:47:12.131Z,57152.00
2018-07-07T08:48:12.140Z,60064.00
2018-07-07T08:49:12.185Z,59936.00
2018-07-07T08:50:12.159Z,56832.00
2018-07-07T08:51:12.169Z,57184.00
2018-07-07T08:52:12.181Z,57312.00
2018-07-07T08:53:12.186Z,62432.00
2018-07-07T08:54:12.198Z,64608.00
2018-07-07T08:55:12.211Z,62720.00
2018-07-07T08:56:12.219Z,62528.00
2018-07-07T08:57:12.231Z,61888.00
2018-07-07T08:58:12.239Z,62848.00
2018-07-07T08:59:12.252Z,64416.00
2018-07-07T09:00:12.262Z,61152.00
2018-07-07T09:01:12.271Z,61024.00
2018-07-07T09:02:12.305Z,65248.00
2018-07-07T09:03:12.295Z,67392.00
2018-07-07T09:04:12.304Z,71808.00
2018-07-07T09:05:12.314Z,72448.00
2018-07-07T09:06:12.323Z,72384.00
2018-07-07T09:07:12.337Z,71840.00
2018-07-07T09:08:12.343Z,71904.00
2018-07-07T09:09:12.358Z,65408.00
2018-07-07T09:10:12.370Z,72512.00
2018-07-07T09:11:12.381Z,73344.00
2018-07-07T09:12:12.392Z,62400.00
2018-07-07T09:13:12.400Z,28352.00
2018-07-07T09:14:12.471Z,27968.00
2018-07-07T09:15:12.422Z,70496.00
2018-07-07T09:16:12.436Z,69856.00
2018-07-07T09:17:12.446Z,73024.00
2018-07-07T09:18:12.459Z,75840.00
2018-07-07T09:19:12.473Z,28320.00
2018-07-07T09:20:12.477Z,25696.00
2018-07-07T09:21:12.544Z,26368.00
2018-07-07T09:22:12.501Z,25120.00
2018-07-07T09:23:12.513Z,25056.00
2018-07-07T09:24:12.521Z,25248.00
2018-07-07T09:25:12.540Z,68128.00
2018-07-07T09:26:12.546Z,71616.00
2018-07-07T09:27:12.556Z,72096.00
2018-07-07T09:28:12.564Z,76896.00
2018-07-07T09:29:12.577Z,79072.00
2018-07-07T09:30:12.594Z,81728.00
2018-07-07T09:31:12.605Z,80288.00
2018-07-07T09:32:12.620Z,79648.00
2018-07-07T09:33:12.629Z,81664.00
2018-07-07T09:34:12.636Z,80480.00
2018-07-07T09:35:12.649Z,80384.00
2018-07-07T09:36:12.657Z,80992.00
2018-07-07T09:37:12.673Z,82400.00
2018-07-07T09:38:12.685Z,83616.00
2018-07-07T09:39:12.697Z,84672.00
2018-07-07T09:40:13.018Z,84768.00
2018-07-07T09:41:13.638Z,87296.00
2018-07-07T09:42:13.661Z,91168.00
2018-07-07T09:43:13.683Z,89024.00
2018-07-07T09:44:13.248Z,85856.00
2018-07-07T09:45:13.805Z,85792.00
2018-07-07T09:46:13.503Z,87328.00
2018-07-07T09:47:13.679Z,88544.00
2018-07-07T09:48:14.155Z,89120.00
2018-07-07T09:49:14.650Z,93152.00
2018-07-07T09:50:14.078Z,92256.00
2018-07-07T09:51:13.304Z,91360.00
2018-07-07T09:52:13.841Z,91200.00
2018-07-07T09:53:13.824Z,91168.00
2018-07-07T09:54:14.687Z,88864.00
2018-07-07T09:55:13.835Z,89952.00
2018-07-07T09:56:13.536Z,90464.00
2018-07-07T09:57:14.047Z,86944.00
2018-07-07T09:58:13.858Z,85440.00
2018-07-07T09:59:13.074Z,84832.00
2018-07-07T10:00:14.519Z,84992.00
2018-07-07T10:01:13.894Z,86144.00
2018-07-07T10:02:14.051Z,85952.00
2018-07-07T10:03:13.995Z,86016.00
2018-07-07T10:04:14.033Z,86176.00
2018-07-07T10:05:13.295Z,88096.00
2018-07-07T10:06:14.000Z,88160.00
2018-07-07T10:07:14.076Z,86304.00
2018-07-07T10:08:14.086Z,82336.00
2018-07-07T10:09:14.200Z,83936.00
2018-07-07T10:10:13.131Z,83680.00
2018-07-07T10:11:13.131Z,88736.00
2018-07-07T10:12:13.140Z,92096.00
2018-07-07T10:13:13.167Z,86112.00
2018-07-07T10:14:13.206Z,77536.00
2018-07-07T10:15:14.118Z,74304.00
2018-07-07T10:16:13.156Z,73632.00
2018-07-07T10:17:13.180Z,79904.00
2018-07-07T10:18:13.188Z,87264.00
2018-07-07T10:19:13.766Z,92416.00
2018-07-07T10:20:13.213Z,92448.00
2018-07-07T10:21:13.221Z,88960.00
2018-07-07T10:22:13.237Z,93024.00
2018-07-07T10:23:13.277Z,92256.00
2018-07-07T10:25:47.185Z,83296.00
2018-07-07T10:26:46.699Z,89696.00
2018-07-07T10:28:39.878Z,94176.00
2018-07-07T10:29:40.285Z,96160.00
2018-07-07T10:31:35.057Z,93984.00
2018-07-07T10:32:34.672Z,90752.00
2018-07-07T10:34:33.780Z,84320.00
2018-07-07T10:35:33.840Z,82112.00
2018-07-07T10:37:25.510Z,93696.00
2018-07-07T10:38:26.115Z,97152.00
2018-07-07T10:39:25.477Z,100992.00
2018-07-07T10:40:25.670Z,100000.00
2018-07-07T10:41:25.892Z,96960.00
2018-07-07T10:42:25.469Z,100096.00
2018-07-07T10:43:25.466Z,100736.00
2018-07-07T10:44:25.563Z,94432.00
2018-07-07T10:45:25.533Z,92800.00
2018-07-07T10:46:32.106Z,90304.00
2018-07-07T10:47:25.554Z,92800.00
2018-07-07T10:48:25.525Z,95296.00
2018-07-07T10:49:48.474Z,95904.00
2018-07-07T10:52:48.364Z,97728.00
